Time;durP1;ratioP1;P1;durP2;ratioP2;P2;SDS_P1;SDS_P2;PMS_P1;PMS_P2;Temp;Humidity;BMP_temperature;BMP_pressure;BME280_temperature;BME280_humidity;BME280_pressure;Samples;Min_cycle;Max_cycle;Signal;HPM_P1;HPM_P2
2021/03/19 00:01:38;;;;;;;1999.90;999.90;;;16.90;95.30;;;;;;5073044;28;20172;-43
2021/03/19 00:04:05;;;;;;;1999.90;999.90;;;16.90;95.30;;;;;;5072946;28;20212;-44
2021/03/19 00:06:32;;;;;;;1999.90;999.90;;;16.90;95.30;;;;;;5072931;28;20180;-44
2021/03/19 00:09:01;;;;;;;1999.90;999.90;;;17.00;94.90;;;;;;5072970;28;20160;-43
2021/03/19 00:11:28;;;;;;;1999.90;999.90;;;16.90;94.80;;;;;;5072991;28;20156;-43
2021/03/19 00:13:54;;;;;;;1999.90;999.90;;;16.90;95.00;;;;;;5073242;28;20522;-43
2021/03/19 00:16:21;;;;;;;1999.90;999.90;;;16.90;95.10;;;;;;5072782;28;20184;-43
2021/03/19 00:18:48;;;;;;;1999.90;999.90;;;16.90;95.20;;;;;;5072938;28;20180;-45
2021/03/19 00:21:16;;;;;;;1999.90;999.90;;;16.90;95.40;;;;;;5072927;28;20165;-44
2021/03/19 00:23:42;;;;;;;1999.90;999.90;;;17.00;95.30;;;;;;5072912;28;20160;-45
2021/03/19 00:26:09;;;;;;;1999.90;999.90;;;16.90;95.10;;;;;;5072592;28;20208;-47
2021/03/19 00:28:36;;;;;;;1999.90;999.90;;;16.90;95.00;;;;;;5072779;28;20161;-44
2021/03/19 00:31:03;;;;;;;1999.90;999.90;;;16.90;95.20;;;;;;5072745;28;20164;-42
2021/03/19 00:33:30;;;;;;;1999.90;999.90;;;16.80;95.10;;;;;;5072701;28;20161;-45
2021/03/19 00:35:57;;;;;;;1999.90;999.90;;;16.70;94.90;;;;;;5072666;28;20208;-43
2021/03/19 00:38:24;;;;;;;1999.90;999.90;;;16.70;95.20;;;;;;5075198;28;20160;-43
2021/03/19 00:40:51;;;;;;;1999.90;999.90;;;16.70;95.30;;;;;;5076699;28;20180;-44
2021/03/19 03:54:19;;;;;;;1999.90;999.90;;;16.10;97.40;;;;;;5068297;28;20226;-44
2021/03/19 03:56:46;;;;;;;1999.90;999.90;;;16.00;97.60;;;;;;5072700;28;20204;-45
2021/03/19 03:59:13;;;;;;;1999.90;999.90;;;16.00;97.70;;;;;;5072803;28;20259;-42
2021/03/19 04:01:41;;;;;;;1999.90;999.90;;;15.90;97.90;;;;;;5072842;28;20276;-42
2021/03/19 04:04:12;;;;;;;1999.90;999.90;;;15.90;98.00;;;;;;5072797;28;20636;-43
2021/03/19 04:06:39;;;;;;;1999.90;999.90;;;15.90;98.20;;;;;;5071534;28;20176;-42
2021/03/19 04:09:06;;;;;;;1999.90;999.90;;;16.00;98.10;;;;;;5072698;28;20522;-43
2021/03/19 04:11:33;;;;;;;1999.90;999.90;;;15.80;98.10;;;;;;5072514;28;20180;-42
2021/03/19 04:14:00;;;;;;;1999.90;999.90;;;15.80;98.40;;;;;;5072667;28;20173;-42
2021/03/19 04:16:28;;;;;;;1999.90;999.90;;;15.80;98.30;;;;;;5072667;28;20204;-44
2021/03/19 04:18:55;;;;;;;1999.90;999.90;;;15.80;98.40;;;;;;5072651;28;20176;-42
2021/03/19 04:21:22;;;;;;;1999.90;999.90;;;15.80;98.50;;;;;;5072753;28;20180;-47
2021/03/19 04:23:50;;;;;;;1999.90;999.90;;;15.60;98.50;;;;;;5072640;28;20219;-42
2021/03/19 04:26:25;;;;;;;1999.90;999.90;;;15.70;98.70;;;;;;5072854;28;20169;-46
2021/03/19 04:28:52;;;;;;;1999.90;999.90;;;15.60;98.70;;;;;;5072758;28;20259;-43
2021/03/19 04:31:20;;;;;;;1999.90;999.90;;;15.70;98.80;;;;;;5072824;28;20595;-44
2021/03/19 04:33:47;;;;;;;1999.90;999.90;;;15.70;98.60;;;;;;5072520;28;20196;-43
2021/03/19 04:36:23;;;;;;;1999.90;999.90;;;15.80;98.60;;;;;;5072471;28;20670;-43
2021/03/19 04:38:56;;;;;;;1999.90;999.90;;;15.80;98.30;;;;;;5072650;28;20539;-43
2021/03/19 04:41:23;;;;;;;1999.90;999.90;;;15.80;98.40;;;;;;5072769;28;20165;-43
2021/03/19 04:43:50;;;;;;;1999.90;999.90;;;15.80;98.30;;;;;;5072893;28;20525;-43
2021/03/19 04:46:16;;;;;;;1999.90;999.90;;;15.80;98.30;;;;;;5072539;28;20694;-44
2021/03/19 04:48:43;;;;;;;1999.90;999.90;;;15.80;98.50;;;;;;5072571;28;20172;-43
2021/03/19 04:51:10;;;;;;;1999.90;999.90;;;15.90;98.50;;;;;;5072544;28;20165;-43
2021/03/19 04:53:37;;;;;;;1999.90;999.90;;;15.90;98.40;;;;;;5072460;28;20164;-45
2021/03/19 04:56:04;;;;;;;1999.90;999.90;;;15.90;98.30;;;;;;5072259;28;20278;-43
2021/03/19 04:58:31;;;;;;;1999.90;999.90;;;15.90;98.20;;;;;;5072506;28;20608;-42
2021/03/19 05:00:57;;;;;;;1999.90;999.90;;;15.90;98.20;;;;;;5072530;28;20180;-42
2021/03/19 05:03:24;;;;;;;1999.90;999.90;;;15.90;98.20;;;;;;5072555;28;20175;-44
2021/03/19 05:05:51;;;;;;;1999.90;999.90;;;15.90;98.10;;;;;;5072397;28;20165;-43
2021/03/19 05:08:18;;;;;;;1999.90;999.90;;;15.80;98.20;;;;;;5072362;28;20230;-42
2021/03/19 05:10:44;;;;;;;1999.90;999.90;;;15.90;98.30;;;;;;5072296;28;20229;-48
2021/03/19 05:13:11;;;;;;;1999.90;999.90;;;16.00;98.30;;;;;;5072332;28;20252;-43
2021/03/19 05:15:39;;;;;;;1999.90;999.90;;;16.00;98.00;;;;;;5072069;28;20182;-43
2021/03/19 05:18:06;;;;;;;1999.90;999.90;;;16.00;98.20;;;;;;5072006;28;20246;-43
2021/03/19 05:20:34;;;;;;;1999.90;999.90;;;16.00;98.10;;;;;;5072272;28;20168;-47
2021/03/19 05:23:00;;;;;;;1999.90;999.90;;;16.00;98.00;;;;;;5072344;28;20191;-46
2021/03/19 05:25:30;;;;;;;1999.90;999.90;;;16.10;98.00;;;;;;5074674;28;20788;-43
2021/03/19 05:27:58;;;;;;;1999.90;999.90;;;16.10;97.90;;;;;;5075997;28;20164;-43
2021/03/19 05:30:26;;;;;;;1999.90;999.90;;;16.10;97.90;;;;;;5075735;28;20524;-43
2021/03/19 05:32:54;;;;;;;1999.90;999.90;;;16.20;98.00;;;;;;5075716;28;20182;-44
2021/03/19 05:35:22;;;;;;;1999.90;999.90;;;16.30;97.90;;;;;;5075374;28;20200;-43
2021/03/19 05:37:50;;;;;;;1999.90;999.90;;;16.40;97.70;;;;;;5075203;28;20200;-47
2021/03/19 05:40:39;;;;;;;1999.90;999.90;;;16.50;97.50;;;;;;5075440;28;20168;-43
2021/03/19 05:43:45;;;;;;;1999.90;999.90;;;16.70;96.80;;;;;;5075422;28;20161;-43
2021/03/19 05:46:17;;;;;;;1999.90;999.90;;;17.00;96.00;;;;;;5069547;28;20192;-44
2021/03/19 05:48:57;;;;;;;1999.90;999.90;;;17.40;95.00;;;;;;5075306;28;20168;-45
2021/03/19 05:51:56;;;;;;;1999.90;999.90;;;17.70;94.10;;;;;;5075322;28;20623;-45
2021/03/19 05:54:23;;;;;;;1999.90;999.90;;;18.10;93.30;;;;;;5072976;28;20298;-43
2021/03/19 05:57:08;;;;;;;1999.90;999.90;;;18.40;92.50;;;;;;5074262;28;20284;-43
2021/03/19 05:59:38;;;;;;;1999.90;999.90;;;18.60;91.60;;;;;;5065853;28;20169;-53
2021/03/19 06:02:42;;;;;;;1999.90;999.90;;;18.80;90.70;;;;;;5070030;28;20643;-52
2021/03/19 06:05:17;;;;;;;1999.90;999.90;;;19.00;90.30;;;;;;5053627;28;20662;-52
2021/03/19 06:07:47;;;;;;;1999.90;999.90;;;19.10;90.00;;;;;;5053619;28;20173;-50
2021/03/19 06:10:26;;;;;;;1999.90;999.90;;;19.20;89.80;;;;;;5054675;28;20168;-53
2021/03/19 06:13:07;;;;;;;1999.90;999.90;;;19.30;89.10;;;;;;5054568;28;20169;-51
2021/03/19 06:15:41;;;;;;;1999.90;999.90;;;19.40;88.00;;;;;;5074598;28;20740;-55
2021/03/19 06:18:19;;;;;;;1999.90;999.90;;;19.50;87.00;;;;;;5074266;28;20165;-45
2021/03/19 06:21:03;;;;;;;1999.90;999.90;;;19.60;86.70;;;;;;5074587;28;20484;-45
2021/03/19 06:23:31;;;;;;;1999.90;999.90;;;19.70;86.10;;;;;;5074368;28;20646;-54
2021/03/19 06:26:06;;;;;;;1999.90;999.90;;;19.80;85.50;;;;;;5074086;28;20165;-43
2021/03/19 06:28:38;;;;;;;1999.90;999.90;;;19.90;84.90;;;;;;5074545;28;20206;-54
2021/03/19 06:31:25;;;;;;;1999.90;999.90;;;20.00;84.70;;;;;;5074524;28;20159;-51
2021/03/19 06:34:12;;;;;;;1999.90;999.90;;;20.10;83.20;;;;;;5074103;28;20255;-51
2021/03/19 06:36:57;;;;;;;1999.90;999.90;;;20.20;82.80;;;;;;5073707;28;20200;-52
2021/03/19 06:39:45;;;;;;;1999.90;999.90;;;20.40;82.00;;;;;;5052989;28;20231;-48
2021/03/19 06:42:18;;;;;;;1999.90;999.90;;;20.50;80.80;;;;;;5063574;28;20168;-48
2021/03/19 06:45:16;;;;;;;1999.90;999.90;;;20.50;81.00;;;;;;5073901;28;20244;-45
2021/03/19 06:47:49;;;;;;;1999.90;999.90;;;20.50;80.70;;;;;;5073669;28;20177;-51
2021/03/19 06:50:27;;;;;;;1999.90;999.90;;;20.60;80.20;;;;;;5073947;28;20168;-45
2021/03/19 06:53:23;;;;;;;1999.90;999.90;;;20.70;79.60;;;;;;5073016;28;20176;-47
2021/03/19 06:56:14;;;;;;;1999.90;999.90;;;20.90;79.30;;;;;;5053734;28;20224;-53
2021/03/19 06:58:48;;;;;;;1999.90;999.90;;;21.00;78.30;;;;;;5050391;28;20189;-55
2021/03/19 07:01:38;;;;;;;1999.90;999.90;;;21.10;77.60;;;;;;5053342;28;20623;-53
2021/03/19 07:04:54;;;;;;;1999.90;999.90;;;21.30;76.80;;;;;;5072427;28;20234;-53
2021/03/19 07:07:57;;;;;;;1999.90;999.90;;;21.40;76.30;;;;;;5073810;28;20159;-46
2021/03/19 07:10:33;;;;;;;1999.90;999.90;;;21.50;74.80;;;;;;5073536;28;20176;-48
2021/03/19 07:13:36;;;;;;;1999.90;999.90;;;21.70;74.60;;;;;;5073338;28;20179;-56
2021/03/19 07:16:26;;;;;;;1999.90;999.90;;;21.70;74.00;;;;;;5073242;28;20531;-65
2021/03/19 07:19:25;;;;;;;1999.90;999.90;;;21.80;73.30;;;;;;5073484;28;20195;-56
2021/03/19 07:21:55;;;;;;;1999.90;999.90;;;21.90;72.80;;;;;;5067163;28;20281;-44
2021/03/19 07:24:40;;;;;;;1999.90;999.90;;;21.90;72.60;;;;;;5072865;28;20237;-45
2021/03/19 07:27:48;;;;;;;1999.90;999.90;;;21.90;72.10;;;;;;5072811;28;20168;-46
2021/03/19 07:30:37;;;;;;;1999.90;999.90;;;22.00;73.10;;;;;;5066805;28;20223;-44
2021/03/19 07:33:33;;;;;;;1999.90;999.90;;;22.10;72.00;;;;;;5072470;28;20705;-43
2021/03/19 07:36:16;;;;;;;1999.90;999.90;;;22.20;70.70;;;;;;5070354;28;20196;-44
2021/03/19 07:38:46;;;;;;;1999.90;999.90;;;22.30;69.40;;;;;;5072380;28;20191;-44
2021/03/19 07:41:35;;;;;;;1999.90;999.90;;;22.40;69.30;;;;;;5072379;28;20172;-43
2021/03/19 07:44:36;;;;;;;1999.90;999.90;;;22.60;69.60;;;;;;5052847;28;20635;-44
2021/03/19 07:47:27;;;;;;;1999.90;999.90;;;22.90;67.80;;;;;;5052544;28;20172;-44
2021/03/19 07:50:15;;;;;;;1999.90;999.90;;;23.00;67.50;;;;;;5066308;28;20183;-43
2021/03/19 07:52:47;;;;;;;1999.90;999.90;;;23.20;65.70;;;;;;5072064;28;20337;-44
2021/03/19 07:55:33;;;;;;;1999.90;999.90;;;23.50;64.80;;;;;;5071907;28;20733;-44
2021/03/19 07:58:30;;;;;;;1999.90;999.90;;;23.70;64.40;;;;;;5072574;28;20191;-43
2021/03/19 08:01:23;;;;;;;1999.90;999.90;;;24.10;61.70;;;;;;5070625;28;20169;-44
2021/03/19 08:04:03;;;;;;;1999.90;999.90;;;24.60;59.70;;;;;;5033978;28;20212;-43
2021/03/19 08:06:37;;;;;;;1999.90;999.90;;;24.70;59.00;;;;;;5052511;28;20153;-47
2021/03/19 08:09:24;;;;;;;1999.90;999.90;;;25.00;57.70;;;;;;5062734;28;20163;-42
2021/03/19 08:11:57;;;;;;;1999.90;999.90;;;25.70;56.70;;;;;;5072124;28;20175;-45
2021/03/19 08:14:33;;;;;;;1999.90;999.90;;;26.20;54.70;;;;;;5072314;28;20161;-47
2021/03/19 08:17:22;;;;;;;1999.90;999.90;;;26.30;54.00;;;;;;5071741;28;20228;-41
2021/03/19 08:20:08;;;;;;;1999.90;999.90;;;26.20;53.50;;;;;;5072378;28;20165;-48
2021/03/19 08:22:44;;;;;;;1999.90;999.90;;;26.40;53.10;;;;;;5072678;28;20176;-54
2021/03/19 08:25:36;;;;;;;1999.90;999.90;;;26.80;52.60;;;;;;5070208;28;20172;-46
2021/03/19 08:28:24;;;;;;;1999.90;999.90;;;26.90;52.00;;;;;;5052487;28;20195;-51
2021/03/19 08:31:17;;;;;;;1999.90;999.90;;;27.00;52.30;;;;;;5061515;28;20172;-49
2021/03/19 08:33:53;;;;;;;1999.90;999.90;;;27.30;51.10;;;;;;5072413;28;20252;-58
2021/03/19 08:36:23;;;;;;;1999.90;999.90;;;27.40;50.50;;;;;;5072199;28;20188;-63
2021/03/19 08:39:22;;;;;;;1999.90;999.90;;;27.10;50.70;;;;;;5072258;28;20172;-59
2021/03/19 08:41:53;;;;;;;1999.90;999.90;;;27.00;51.20;;;;;;5072396;28;20191;-58
2021/03/19 08:44:27;;;;;;;1999.90;999.90;;;27.30;50.90;;;;;;5072134;28;20171;-48
2021/03/19 08:47:00;;;;;;;1999.90;999.90;;;27.30;49.60;;;;;;5072396;28;20167;-47
2021/03/19 08:49:39;;;;;;;1999.90;999.90;;;26.60;51.50;;;;;;5072415;28;20165;-45
2021/03/19 08:52:31;;;;;;;1999.90;999.90;;;26.90;51.70;;;;;;5072345;28;20152;-46
2021/03/19 08:55:25;;;;;;;1999.90;999.90;;;26.90;49.80;;;;;;5072068;28;20228;-54
2021/03/19 08:58:30;;;;;;;1999.90;999.90;;;27.40;48.90;;;;;;5070507;28;20254;-42
2021/03/19 09:01:01;;;;;;;1999.90;999.90;;;27.20;49.20;;;;;;5073252;28;20176;-44
2021/03/19 09:03:44;;;;;;;1999.90;999.90;;;26.90;49.90;;;;;;5075795;28;20650;-61
2021/03/19 09:06:21;;;;;;;1999.90;999.90;;;26.90;50.50;;;;;;5076135;28;20157;-56
2021/03/19 09:08:59;;;;;;;1999.90;999.90;;;27.10;50.60;;;;;;5075559;28;20233;-46
2021/03/19 09:11:38;;;;;;;1999.90;999.90;;;27.30;49.10;;;;;;5075685;28;20204;-54
2021/03/19 09:14:05;;;;;;;1999.90;999.90;;;27.60;49.30;;;;;;5075478;28;20181;-59
2021/03/19 09:16:49;;;;;;;1999.90;999.90;;;28.00;48.40;;;;;;5075583;28;20222;-59
2021/03/19 09:19:36;;;;;;;1999.90;999.90;;;28.10;47.70;;;;;;5075368;28;20164;-56
2021/03/19 09:22:24;;;;;;;1999.90;999.90;;;28.10;48.20;;;;;;5075748;28;20574;-56
2021/03/19 09:25:12;;;;;;;1999.90;999.90;;;28.60;47.30;;;;;;5075045;28;20181;-59
2021/03/19 09:27:46;;;;;;;1999.90;999.90;;;28.90;44.20;;;;;;5074698;28;20180;-59
2021/03/19 09:30:41;;;;;;;1999.90;999.90;;;29.10;45.70;;;;;;5055648;28;20261;-48
2021/03/19 09:33:48;;;;;;;1999.90;999.90;;;29.20;43.80;;;;;;5066149;28;20514;-60
2021/03/19 09:36:52;;;;;;;1999.90;999.90;;;29.00;44.20;;;;;;5068072;28;20208;-56
2021/03/19 09:39:46;;;;;;;1999.90;999.90;;;28.50;46.00;;;;;;5075230;28;20180;-51
2021/03/19 09:42:19;;;;;;;1999.90;999.90;;;29.70;43.90;;;;;;5074951;28;20172;-60
2021/03/19 09:44:59;;;;;;;1999.90;999.90;;;30.30;42.20;;;;;;5075684;28;20160;-60
2021/03/19 09:47:54;;;;;;;1999.90;999.90;;;30.40;41.80;;;;;;5071639;28;20169;-56
2021/03/19 09:50:31;;;;;;;1999.90;999.90;;;30.10;42.30;;;;;;5058882;28;20224;-59
2021/03/19 09:53:04;;;;;;;1999.90;999.90;;;29.50;43.10;;;;;;5055051;28;20172;-59
2021/03/19 09:55:44;;;;;;;1999.90;999.90;;;28.80;43.20;;;;;;5054840;28;20290;-56
2021/03/19 09:58:30;;;;;;;1999.90;999.90;;;28.10;44.70;;;;;;5062730;28;20263;-56
2021/03/19 10:01:17;;;;;;;1999.90;999.90;;;28.90;43.90;;;;;;5049570;28;20183;-50
2021/03/19 10:03:50;;;;;;;1999.90;999.90;;;28.30;42.40;;;;;;5074563;28;20199;-58
2021/03/19 10:06:27;;;;;;;1999.90;999.90;;;27.70;43.00;;;;;;5055148;28;20157;-53
2021/03/19 10:09:15;;;;;;;1999.90;999.90;;;28.70;42.20;;;;;;5066984;28;20180;-58
2021/03/19 10:11:59;;;;;;;1999.90;999.90;;;29.30;41.70;;;;;;5074701;28;20196;-55
2021/03/19 10:14:38;;;;;;;1999.90;999.90;;;28.70;41.30;;;;;;5074785;28;20165;-50
2021/03/19 10:17:22;;;;;;;1999.90;999.90;;;28.10;42.90;;;;;;5074589;28;20196;-43
2021/03/19 10:19:58;;;;;;;1999.90;999.90;;;28.20;42.60;;;;;;5073942;28;20615;-62
2021/03/19 10:22:38;;;;;;;1999.90;999.90;;;29.00;41.00;;;;;;5074140;28;20167;-52
2021/03/19 10:25:31;;;;;;;1999.90;999.90;;;29.10;39.90;;;;;;5074402;28;20603;-57
2021/03/19 10:28:05;;;;;;;1999.90;999.90;;;29.30;39.50;;;;;;5074145;28;20168;-48
2021/03/19 10:30:49;;;;;;;1999.90;999.90;;;28.90;40.40;;;;;;5073909;28;20573;-51
2021/03/19 10:33:17;;;;;;;1999.90;999.90;;;28.80;40.50;;;;;;5073892;28;20254;-56
2021/03/19 10:36:05;;;;;;;1999.90;999.90;;;28.50;41.90;;;;;;5074482;28;20188;-53
2021/03/19 10:38:59;;;;;;;1999.90;999.90;;;27.80;42.30;;;;;;5074013;28;20187;-54
2021/03/19 10:41:50;;;;;;;1999.90;999.90;;;27.50;42.80;;;;;;5074030;28;20172;-49
2021/03/19 10:44:23;;;;;;;1999.90;999.90;;;27.40;43.10;;;;;;5074062;28;20176;-59
2021/03/19 10:47:09;;;;;;;1999.90;999.90;;;27.90;42.50;;;;;;5074279;28;20201;-59
2021/03/19 10:49:44;;;;;;;1999.90;999.90;;;27.90;42.50;;;;;;5074178;28;20184;-55
2021/03/19 10:52:33;;;;;;;1999.90;999.90;;;28.20;42.40;;;;;;5073575;28;20649;-46
2021/03/19 10:55:05;;;;;;;1999.90;999.90;;;28.30;41.70;;;;;;5073803;28;20224;-55
2021/03/19 10:57:37;;;;;;;1999.90;999.90;;;28.30;40.90;;;;;;5068312;28;20211;-50
2021/03/19 11:00:30;;;;;;;1999.90;999.90;;;28.20;41.30;;;;;;5068009;28;20189;-46
2021/03/19 11:03:03;;;;;;;1999.90;999.90;;;28.10;42.20;;;;;;5065061;28;20216;-52
2021/03/19 11:05:31;;;;;;;1999.90;999.90;;;28.70;40.20;;;;;;5053863;28;20225;-57
2021/03/19 11:08:13;;;;;;;1999.90;999.90;;;28.90;39.70;;;;;;5053769;28;20592;-55
2021/03/19 11:10:40;;;;;;;1999.90;999.90;;;29.00;39.50;;;;;;5060323;28;20165;-50
2021/03/19 11:13:10;;;;;;;1999.90;999.90;;;28.50;41.30;;;;;;5072706;28;20169;-49
2021/03/19 11:15:40;;;;;;;1999.90;999.90;;;28.70;41.40;;;;;;5073695;28;20172;-60
2021/03/19 11:18:15;;;;;;;1999.90;999.90;;;28.70;40.90;;;;;;5072366;28;20212;-57
2021/03/19 11:20:46;;;;;;;1999.90;999.90;;;28.40;42.60;;;;;;5072784;28;20183;-56
2021/03/19 11:23:28;;;;;;;1999.90;999.90;;;28.50;44.90;;;;;;5072866;28;20187;-55
2021/03/19 11:25:56;;;;;;;1999.90;999.90;;;28.70;44.50;;;;;;5073119;28;20218;-57
2021/03/19 11:28:38;;;;;;;1999.90;999.90;;;28.40;44.60;;;;;;5072877;28;20184;-58
2021/03/19 11:31:29;;;;;;;1999.90;999.90;;;28.50;44.60;;;;;;5073316;28;20149;-57
2021/03/19 11:34:01;;;;;;;1999.90;999.90;;;28.60;44.20;;;;;;5072786;28;20173;-49
2021/03/19 11:36:53;;;;;;;1999.90;999.90;;;28.60;43.60;;;;;;5072992;28;20287;-48
2021/03/19 11:39:45;;;;;;;1999.90;999.90;;;29.00;42.90;;;;;;5072336;28;20183;-49
2021/03/19 11:42:14;;;;;;;1999.90;999.90;;;29.40;43.30;;;;;;5051740;28;20184;-51
2021/03/19 11:44:42;;;;;;;1999.90;999.90;;;29.00;43.00;;;;;;5073158;28;20597;-59
2021/03/19 11:47:33;;;;;;;1999.90;999.90;;;28.60;43.80;;;;;;5073136;28;20172;-59
2021/03/19 11:50:14;;;;;;;1999.90;999.90;;;28.80;43.80;;;;;;5073365;28;20156;-57
2021/03/19 11:52:41;;;;;;;1999.90;999.90;;;28.00;45.40;;;;;;5072925;28;20176;-59
2021/03/19 11:55:15;;;;;;;1999.90;999.90;;;28.10;45.50;;;;;;5072798;28;20686;-58
2021/03/19 11:57:42;;;;;;;1999.90;999.90;;;28.40;44.10;;;;;;5072947;28;20284;-57
2021/03/19 12:00:09;;;;;;;1999.90;999.90;;;28.30;45.00;;;;;;5072939;28;20164;-55
2021/03/19 12:02:41;;;;;;;1999.90;999.90;;;28.10;45.60;;;;;;5072754;28;20172;-57
2021/03/19 12:05:11;;;;;;;1999.90;999.90;;;28.00;46.40;;;;;;5072713;28;20230;-58
2021/03/19 12:07:38;;;;;;;1999.90;999.90;;;28.10;46.00;;;;;;5072806;28;20192;-55
2021/03/19 12:10:08;;;;;;;1999.90;999.90;;;28.10;45.70;;;;;;5072725;28;20686;-51
2021/03/19 12:12:35;;;;;;;1999.90;999.90;;;28.10;45.00;;;;;;5072718;28;20521;-53
2021/03/19 12:15:03;;;;;;;1999.90;999.90;;;28.30;45.60;;;;;;5072859;28;20164;-59
2021/03/19 12:17:30;;;;;;;1999.90;999.90;;;28.50;45.10;;;;;;5072814;28;20289;-45
2021/03/19 12:19:57;;;;;;;1999.90;999.90;;;28.20;45.20;;;;;;5072587;28;20168;-59
2021/03/19 12:22:23;;;;;;;1999.90;999.90;;;28.10;45.70;;;;;;5072413;28;20168;-56
2021/03/19 12:24:51;;;;;;;1999.90;999.90;;;27.90;46.00;;;;;;5072433;28;20168;-59
2021/03/19 12:27:20;;;;;;;1999.90;999.90;;;28.20;45.20;;;;;;5072919;28;20180;-45
2021/03/19 12:29:47;;;;;;;1999.90;999.90;;;28.30;45.10;;;;;;5072521;28;20183;-52
2021/03/19 12:32:14;;;;;;;1999.90;999.90;;;28.40;44.20;;;;;;5072850;28;20196;-58
2021/03/19 12:34:41;;;;;;;1999.90;999.90;;;28.50;45.00;;;;;;5076545;28;20164;-59
2021/03/19 12:37:08;;;;;;;1999.90;999.90;;;28.60;43.80;;;;;;5076463;28;20196;-59
2021/03/19 12:39:35;;;;;;;1999.90;999.90;;;28.50;44.20;;;;;;5076403;28;20524;-42
2021/03/19 12:42:02;;;;;;;1999.90;999.90;;;28.40;44.20;;;;;;5076565;28;20160;-60
2021/03/19 12:44:29;;;;;;;1999.90;999.90;;;28.30;44.30;;;;;;5076392;28;20191;-58
2021/03/19 12:46:56;;;;;;;1999.90;999.90;;;28.50;44.10;;;;;;5076419;28;20661;-60
2021/03/19 12:49:23;;;;;;;1999.90;999.90;;;28.60;43.80;;;;;;5076518;28;20180;-49
2021/03/19 12:51:50;;;;;;;1999.90;999.90;;;28.60;43.90;;;;;;5076504;28;20516;-44
2021/03/19 12:54:18;;;;;;;1999.90;999.90;;;28.70;43.60;;;;;;5076151;28;20208;-59
2021/03/19 12:56:45;;;;;;;1999.90;999.90;;;28.70;43.40;;;;;;5076168;28;20199;-47
2021/03/19 12:59:12;;;;;;;1999.90;999.90;;;28.20;44.10;;;;;;5076171;28;20631;-59
2021/03/19 13:01:39;;;;;;;1999.90;999.90;;;28.40;44.90;;;;;;5076183;28;20173;-58
2021/03/19 13:04:07;;;;;;;1999.90;999.90;;;28.80;43.20;;;;;;5076238;28;20169;-58
2021/03/19 13:06:34;;;;;;;1999.90;999.90;;;29.10;42.90;;;;;;5076264;28;20243;-57
2021/03/19 13:09:02;;;;;;;1999.90;999.90;;;29.20;42.80;;;;;;5076049;28;20665;-59
2021/03/19 13:11:29;;;;;;;1999.90;999.90;;;29.20;42.80;;;;;;5076019;28;20641;-51
2021/03/19 13:13:56;;;;;;;1999.90;999.90;;;29.00;43.00;;;;;;5075910;28;20525;-42
2021/03/19 13:16:23;;;;;;;1999.90;999.90;;;28.70;43.80;;;;;;5075880;28;20200;-52
2021/03/19 13:18:50;;;;;;;1999.90;999.90;;;28.80;43.40;;;;;;5075873;28;20168;-58
2021/03/19 13:21:17;;;;;;;1999.90;999.90;;;29.00;43.40;;;;;;5075873;28;20719;-58
2021/03/19 13:23:44;;;;;;;1999.90;999.90;;;29.20;43.30;;;;;;5075759;28;20214;-49
2021/03/19 13:26:11;;;;;;;1999.90;999.90;;;29.10;43.30;;;;;;5075592;28;20184;-58
2021/03/19 13:28:38;;;;;;;1999.90;999.90;;;28.90;43.60;;;;;;5075755;28;20242;-58
2021/03/19 13:31:04;;;;;;;1999.90;999.90;;;28.90;43.70;;;;;;5075815;28;20191;-42
2021/03/19 13:33:32;;;;;;;1999.90;999.90;;;28.50;44.30;;;;;;5075607;28;20172;-59
2021/03/19 13:36:01;;;;;;;1999.90;999.90;;;28.60;44.40;;;;;;5075578;28;20188;-57
2021/03/19 13:38:31;;;;;;;1999.90;999.90;;;28.20;44.50;;;;;;5075486;28;20180;-58
2021/03/19 13:41:06;;;;;;;1999.90;999.90;;;28.30;44.80;;;;;;5075396;28;20600;-58
2021/03/19 13:43:36;;;;;;;1999.90;999.90;;;28.20;44.70;;;;;;5075168;28;20172;-54
2021/03/19 13:46:04;;;;;;;1999.90;999.90;;;28.30;44.70;;;;;;5074792;28;20204;-54
2021/03/19 13:48:32;;;;;;;1999.90;999.90;;;28.30;44.70;;;;;;5075334;28;20251;-58
2021/03/19 13:51:02;;;;;;;1999.90;999.90;;;28.60;44.40;;;;;;5075225;28;20176;-55
2021/03/19 13:53:29;;;;;;;1999.90;999.90;;;28.60;44.30;;;;;;5075132;28;20161;-52
2021/03/19 13:55:56;;;;;;;1999.90;999.90;;;28.60;44.00;;;;;;5075005;28;20269;-45
2021/03/19 13:58:27;;;;;;;1999.90;999.90;;;28.50;44.60;;;;;;5075203;28;20647;-57
2021/03/19 14:00:56;;;;;;;1999.90;999.90;;;28.40;44.50;;;;;;5074845;28;20168;-42
2021/03/19 14:03:23;;;;;;;1999.90;999.90;;;28.30;44.50;;;;;;5074943;28;20532;-59
2021/03/19 14:05:50;;;;;;;1999.90;999.90;;;28.30;44.50;;;;;;5074970;28;20626;-57
2021/03/19 14:08:24;;;;;;;1999.90;999.90;;;28.20;44.80;;;;;;5074924;28;20168;-58
2021/03/19 14:10:56;;;;;;;1999.90;999.90;;;28.20;45.20;;;;;;5074974;28;20149;-58
2021/03/19 14:13:24;;;;;;;1999.90;999.90;;;28.00;45.70;;;;;;5074833;28;20168;-56
2021/03/19 14:15:52;;;;;;;1999.90;999.90;;;28.10;45.50;;;;;;5074599;28;20168;-44
2021/03/19 14:18:20;;;;;;;1999.90;999.90;;;27.90;45.50;;;;;;5074717;28;20173;-58
2021/03/19 14:20:49;;;;;;;1999.90;999.90;;;27.70;45.80;;;;;;5074677;28;20175;-58
2021/03/19 14:23:23;;;;;;;1999.90;999.90;;;27.70;46.20;;;;;;5074581;28;20182;-51
2021/03/19 14:25:52;;;;;;;1999.90;999.90;;;27.70;46.50;;;;;;5074869;28;20159;-58
2021/03/19 14:28:34;;;;;;;1999.90;999.90;;;27.70;46.40;;;;;;5074703;28;20172;-57
2021/03/19 14:31:00;;;;;;;1999.90;999.90;;;27.70;46.90;;;;;;5074604;28;20152;-45
2021/03/19 14:33:28;;;;;;;1999.90;999.90;;;27.70;46.80;;;;;;5074583;28;20200;-58
2021/03/19 14:35:55;;;;;;;1999.90;999.90;;;27.70;46.80;;;;;;5074346;28;20173;-44
2021/03/19 14:38:22;;;;;;;1999.90;999.90;;;27.70;46.90;;;;;;5074390;28;20180;-45
2021/03/19 14:40:53;;;;;;;1999.90;999.90;;;27.60;47.00;;;;;;5074357;28;20156;-57
2021/03/19 14:43:21;;;;;;;1999.90;999.90;;;27.50;47.20;;;;;;5074603;28;20203;-58
2021/03/19 14:45:48;;;;;;;1999.90;999.90;;;27.30;47.90;;;;;;5074301;28;20165;-57
2021/03/19 14:48:39;;;;;;;1999.90;999.90;;;27.30;47.80;;;;;;5074392;28;20169;-42
2021/03/19 14:51:07;;;;;;;1999.90;999.90;;;27.50;47.40;;;;;;5074326;28;20521;-42
2021/03/19 14:53:34;;;;;;;1999.90;999.90;;;27.40;47.60;;;;;;5074137;28;20229;-54
2021/03/19 14:56:01;;;;;;;1999.90;999.90;;;27.20;47.50;;;;;;5072870;28;20215;-57
2021/03/19 14:58:29;;;;;;;1999.90;999.90;;;27.10;48.10;;;;;;5074016;28;20179;-57
2021/03/19 15:00:56;;;;;;;1999.90;999.90;;;27.00;48.00;;;;;;5073955;28;20160;-56
2021/03/19 15:03:24;;;;;;;1999.90;999.90;;;27.00;48.40;;;;;;5073995;28;20172;-51
2021/03/19 15:05:51;;;;;;;1999.90;999.90;;;27.00;48.20;;;;;;5073991;28;20218;-49
2021/03/19 15:08:20;;;;;;;1999.90;999.90;;;27.10;48.00;;;;;;5073947;28;20173;-52
2021/03/19 15:10:50;;;;;;;1999.90;999.90;;;27.10;48.00;;;;;;5073938;28;20210;-43
2021/03/19 15:13:17;;;;;;;1999.90;999.90;;;27.00;48.30;;;;;;5073966;28;20739;-57
2021/03/19 15:15:44;;;;;;;1999.90;999.90;;;27.00;48.40;;;;;;5073844;28;20179;-52
2021/03/19 15:18:13;;;;;;;1999.90;999.90;;;27.00;48.50;;;;;;5073625;28;20192;-57
2021/03/19 15:20:47;;;;;;;1999.90;999.90;;;26.90;48.90;;;;;;5073642;28;20243;-57
2021/03/19 15:23:36;;;;;;;1999.90;999.90;;;26.70;48.70;;;;;;5073807;28;20165;-53
2021/03/19 15:26:06;;;;;;;1999.90;999.90;;;26.60;49.20;;;;;;5073460;28;20160;-56
2021/03/19 15:28:34;;;;;;;1999.90;999.90;;;26.60;49.70;;;;;;5073545;28;20171;-55
2021/03/19 15:31:02;;;;;;;1999.90;999.90;;;26.60;49.50;;;;;;5073452;28;20168;-56
2021/03/19 15:33:29;;;;;;;1999.90;999.90;;;26.60;49.70;;;;;;5073313;28;20227;-45
2021/03/19 15:35:57;;;;;;;1999.90;999.90;;;26.70;49.20;;;;;;5073298;28;20184;-42
2021/03/19 15:38:24;;;;;;;1999.90;999.90;;;26.70;49.30;;;;;;5073224;28;20230;-43
2021/03/19 15:40:54;;;;;;;1999.90;999.90;;;26.60;49.40;;;;;;5073311;28;20692;-56
2021/03/19 15:43:22;;;;;;;1999.90;999.90;;;26.50;50.10;;;;;;5073179;28;20181;-55
2021/03/19 15:45:49;;;;;;;1999.90;999.90;;;26.40;50.20;;;;;;5073334;28;20168;-56
2021/03/19 15:48:18;;;;;;;1999.90;999.90;;;26.30;50.20;;;;;;5073314;28;20541;-56